METAR Data
IDs: Format: Raw Decoded Include TAF

Data at: 0140 UTC 24 Oct 2019

METAR for:KCNC (Chariton Muni, IA, US)
Text:KCNC 240135Z AUTO 34011KT 10SM OVC015 07/05 A3005 RMK AO2
Temperature: 7.0°C ( 45°F)
Dewpoint: 5.0°C ( 41°F) [RH = 87%]
Pressure (altimeter):30.05 inches Hg (1017.7 mb)
Winds:from the NNW (340 degrees) at 13 MPH (11 knots; 5.7 m/s)
Visibility:10 or more sm (16+ km)
Ceiling:1500 feet AGL
Clouds: overcast cloud deck at 1500 feet AGL
QC Flag:automated observation with no human augmentation